createdAt,value
2019-02-09T00:03:44.808Z,12.29
2019-02-09T00:08:50.247Z,12.24
2019-02-09T00:13:55.620Z,12.19
2019-02-09T00:19:00.949Z,12.11
2019-02-09T00:24:06.247Z,12.01
2019-02-09T00:29:11.587Z,11.90
2019-02-09T00:34:16.953Z,11.83
2019-02-09T00:39:22.264Z,11.76
2019-02-09T00:44:27.681Z,11.69
2019-02-09T00:49:32.991Z,11.59
2019-02-09T00:54:38.304Z,11.50
2019-02-09T00:59:43.798Z,11.44
2019-02-09T01:04:49.123Z,11.35
2019-02-09T01:09:54.427Z,11.29
2019-02-09T01:14:59.798Z,11.23
2019-02-09T01:20:06.479Z,11.20
2019-02-09T01:25:11.935Z,11.16
2019-02-09T01:30:20.155Z,11.14
2019-02-09T01:35:25.521Z,11.07
2019-02-09T01:40:30.844Z,11.03
2019-02-09T01:45:36.228Z,11.00
2019-02-09T01:50:41.520Z,11.04
2019-02-09T01:55:46.873Z,11.06
2019-02-09T02:00:52.331Z,11.06
2019-02-09T02:05:57.759Z,11.08
2019-02-09T02:11:03.309Z,11.09
2019-02-09T02:16:08.598Z,11.13
2019-02-09T02:21:13.929Z,11.10
2019-02-09T02:26:19.306Z,11.11
2019-02-09T02:31:24.737Z,11.14
2019-02-09T02:36:30.027Z,11.18
2019-02-09T02:41:35.370Z,11.13
2019-02-09T02:46:40.685Z,11.10
2019-02-09T02:51:46.016Z,11.02
2019-02-09T02:56:51.411Z,10.94
2019-02-09T03:01:56.772Z,10.91
2019-02-09T03:07:02.098Z,10.89
2019-02-09T03:12:07.516Z,10.88
2019-02-09T03:17:12.838Z,10.89
2019-02-09T03:22:18.142Z,10.87
2019-02-09T03:27:23.620Z,10.78
2019-02-09T03:32:28.922Z,10.69
2019-02-09T03:37:34.257Z,10.62
2019-02-09T03:42:39.537Z,10.63
2019-02-09T03:47:44.874Z,10.68
2019-02-09T03:52:50.235Z,10.61
2019-02-09T03:57:55.587Z,10.45
2019-02-09T04:03:00.931Z,10.26
2019-02-09T04:08:06.331Z,10.19
2019-02-09T04:13:11.635Z,10.29
2019-02-09T04:18:16.959Z,10.40
2019-02-09T04:23:22.420Z,10.55
2019-02-09T04:28:27.795Z,10.70
2019-02-09T04:33:33.095Z,10.84
2019-02-09T04:38:38.502Z,10.92
2019-02-09T04:43:43.928Z,10.99
2019-02-09T04:48:49.221Z,11.05
2019-02-09T04:53:54.537Z,11.00
2019-02-09T04:58:59.859Z,10.84
2019-02-09T05:04:05.284Z,10.66
2019-02-09T05:09:10.598Z,10.50
2019-02-09T05:14:16.007Z,10.34
2019-02-09T05:19:21.443Z,10.19
2019-02-09T05:24:26.759Z,10.08
2019-02-09T05:29:32.014Z,10.00
2019-02-09T05:34:37.318Z,9.95
2019-02-09T05:39:42.650Z,9.90
2019-02-09T05:44:47.947Z,9.84
2019-02-09T05:49:53.315Z,9.83
2019-02-09T05:54:58.622Z,9.86
2019-02-09T06:00:04.133Z,9.96
2019-02-09T06:05:10.139Z,10.06
2019-02-09T06:10:16.815Z,10.20
2019-02-09T06:15:22.368Z,10.26
2019-02-09T06:20:27.967Z,10.30
2019-02-09T06:25:33.286Z,10.34
2019-02-09T06:30:38.588Z,10.38
2019-02-09T06:35:43.989Z,10.34
2019-02-09T06:40:49.299Z,10.31
2019-02-09T06:45:54.573Z,10.27
2019-02-09T06:51:02.140Z,10.24
2019-02-09T06:56:07.651Z,10.38
2019-02-09T07:01:12.980Z,10.50
2019-02-09T07:06:18.443Z,10.54
2019-02-09T07:11:23.835Z,10.51
2019-02-09T07:16:29.114Z,10.47
2019-02-09T07:21:34.512Z,10.44
2019-02-09T07:26:39.839Z,10.48
2019-02-09T07:31:45.173Z,10.57
2019-02-09T07:36:50.534Z,10.86
2019-02-09T07:41:55.929Z,11.11
2019-02-09T07:47:01.338Z,11.23
2019-02-09T07:52:06.797Z,11.40
2019-02-09T07:57:12.099Z,11.62
2019-02-09T08:02:17.491Z,11.69
2019-02-09T08:07:22.892Z,11.77
2019-02-09T08:12:28.255Z,12.02
2019-02-09T08:17:33.640Z,12.20
2019-02-09T08:22:39.010Z,12.82
2019-02-09T08:27:44.375Z,14.03
2019-02-09T08:32:49.667Z,13.82
2019-02-09T08:37:55.003Z,15.17
2019-02-09T08:43:00.470Z,17.16
2019-02-09T08:48:05.942Z,17.42
2019-02-09T08:53:11.342Z,17.02
2019-02-09T08:58:16.704Z,18.71
2019-02-09T09:03:22.041Z,20.64
2019-02-09T09:08:27.347Z,22.25
2019-02-09T09:13:32.649Z,23.42
2019-02-09T09:18:37.966Z,23.63
2019-02-09T09:23:43.389Z,22.41
2019-02-09T09:28:48.740Z,21.38
2019-02-09T09:33:54.205Z,21.17
2019-02-09T09:38:59.775Z,20.07
2019-02-09T09:44:05.976Z,18.30
2019-02-09T09:49:11.290Z,16.92
2019-02-09T09:54:16.641Z,16.38
2019-02-09T09:59:22.004Z,16.63
2019-02-09T10:04:27.451Z,16.95
2019-02-09T10:09:32.771Z,16.56
2019-02-09T10:14:38.204Z,15.87
2019-02-09T10:19:43.540Z,15.36
2019-02-09T10:24:48.907Z,14.87
2019-02-09T10:29:54.270Z,14.53
2019-02-09T10:34:59.646Z,14.24
2019-02-09T10:40:05.577Z,14.22
2019-02-09T10:45:14.451Z,14.36
2019-02-09T10:50:26.652Z,14.51
2019-02-09T10:55:32.203Z,14.56
2019-02-09T11:01:09.586Z,14.53
2019-02-09T11:06:14.908Z,14.31
2019-02-09T11:11:20.278Z,14.23
2019-02-09T11:16:25.728Z,14.21
2019-02-09T11:21:31.057Z,14.16
2019-02-09T11:26:36.454Z,14.18
2019-02-09T11:31:41.961Z,14.24
2019-02-09T11:36:49.068Z,14.22
2019-02-09T11:41:54.493Z,14.31
2019-02-09T11:52:11.274Z,14.48
2019-02-09T11:57:16.739Z,14.40
2019-02-09T12:02:22.159Z,14.26
2019-02-09T12:07:27.476Z,14.14
2019-02-09T12:12:32.770Z,14.08
2019-02-09T12:17:38.340Z,14.09
2019-02-09T12:22:43.699Z,14.26
2019-02-09T12:27:49.043Z,14.45
2019-02-09T12:32:54.689Z,14.68
2019-02-09T12:38:00.090Z,14.94
2019-02-09T12:43:05.491Z,15.17
2019-02-09T12:48:11.112Z,15.18
2019-02-09T12:53:16.521Z,15.18
2019-02-09T12:58:21.895Z,15.31
2019-02-09T13:03:31.302Z,15.51
2019-02-09T13:08:34.669Z,15.58
2019-02-09T13:13:40.091Z,15.58
2019-02-09T13:18:45.564Z,15.47
2019-02-09T13:23:51.011Z,15.29
2019-02-09T13:28:56.343Z,15.12
2019-02-09T13:34:01.667Z,14.91
2019-02-09T13:39:09.274Z,14.79
2019-02-09T13:44:14.598Z,14.66
2019-02-09T13:49:19.992Z,14.51
2019-02-09T13:54:25.389Z,14.43
2019-02-09T13:59:30.732Z,14.48
2019-02-09T14:04:36.137Z,14.48
2019-02-09T14:09:41.526Z,14.48
2019-02-09T14:14:46.976Z,14.46
2019-02-09T14:19:52.378Z,14.47
2019-02-09T14:24:57.745Z,14.41
2019-02-09T14:30:03.166Z,14.34
2019-02-09T14:35:09.097Z,14.33
2019-02-09T14:40:18.557Z,14.22
2019-02-09T14:45:27.046Z,14.10
2019-02-09T14:50:32.394Z,14.00
2019-02-09T14:55:38.305Z,13.88
2019-02-09T15:00:47.110Z,13.82
2019-02-09T15:05:52.570Z,13.82
2019-02-09T15:10:58.117Z,13.76
2019-02-09T15:16:22.590Z,13.64
2019-02-09T15:21:27.951Z,13.50
2019-02-09T15:26:33.333Z,13.40
2019-02-09T15:31:38.684Z,13.32
2019-02-09T15:36:44.089Z,13.24
2019-02-09T15:41:49.443Z,13.18
2019-02-09T15:46:54.829Z,13.11
2019-02-09T15:52:00.230Z,13.04
2019-02-09T15:57:06.452Z,12.99
2019-02-09T16:02:11.849Z,13.03
2019-02-09T16:07:17.292Z,13.01
2019-02-09T16:12:22.593Z,12.96
2019-02-09T16:17:27.906Z,12.80
2019-02-09T16:22:33.313Z,12.63
2019-02-09T16:27:38.731Z,12.52
2019-02-09T16:32:44.228Z,12.41
2019-02-09T16:37:49.673Z,12.34
2019-02-09T16:42:55.017Z,12.32
2019-02-09T16:48:00.353Z,12.27
2019-02-09T16:53:05.897Z,12.18
2019-02-09T16:58:11.256Z,12.13
2019-02-09T17:03:16.600Z,12.07
2019-02-09T17:08:21.988Z,12.03
2019-02-09T17:13:27.263Z,11.98
2019-02-09T17:18:32.564Z,11.98
2019-02-09T17:23:37.879Z,12.02
2019-02-09T17:28:43.308Z,12.14
2019-02-09T17:33:48.786Z,12.27
2019-02-09T17:38:54.231Z,12.39
2019-02-09T17:43:59.604Z,12.46
2019-02-09T17:49:05.039Z,12.51
2019-02-09T17:54:10.375Z,12.52
2019-02-09T17:59:15.720Z,12.54
2019-02-09T18:04:21.029Z,12.55
2019-02-09T18:09:26.478Z,12.52
2019-02-09T18:14:32.045Z,12.41
2019-02-09T18:19:37.503Z,12.26
2019-02-09T18:24:43.097Z,12.08
2019-02-09T18:29:48.406Z,11.95
2019-02-09T18:34:56.192Z,11.90
2019-02-09T18:40:00.820Z,11.95
2019-02-09T18:45:06.487Z,12.02
2019-02-09T18:50:14.926Z,12.07
2019-02-09T18:55:24.495Z,12.15
2019-02-09T19:00:31.969Z,12.14
2019-02-09T19:05:37.317Z,12.12
2019-02-09T19:10:42.618Z,12.10
2019-02-09T19:15:47.947Z,11.98
2019-02-09T19:20:57.027Z,11.76
2019-02-09T19:26:02.444Z,11.57
2019-02-09T19:31:07.839Z,11.46
2019-02-09T19:36:13.226Z,11.42
2019-02-09T19:41:18.572Z,11.44
2019-02-09T19:46:24.003Z,11.40
2019-02-09T19:51:29.329Z,11.30
2019-02-09T19:56:34.605Z,11.27
2019-02-09T20:01:39.948Z,11.25
2019-02-09T20:06:45.262Z,11.25
2019-02-09T20:11:50.633Z,11.24
2019-02-09T20:16:56.263Z,11.24
2019-02-09T20:22:01.576Z,11.22
2019-02-09T20:27:06.932Z,11.19
2019-02-09T20:32:14.353Z,11.18
2019-02-09T20:37:19.736Z,11.18
2019-02-09T20:42:25.167Z,11.22
2019-02-09T20:47:30.558Z,11.22
2019-02-09T20:52:35.884Z,11.22
2019-02-09T20:57:42.491Z,11.24
2019-02-09T21:02:47.847Z,11.25
2019-02-09T21:07:53.290Z,11.28
2019-02-09T21:12:59.092Z,11.32
2019-02-09T21:18:04.558Z,11.33
2019-02-09T21:23:09.982Z,11.36
2019-02-09T21:28:15.401Z,11.36
2019-02-09T21:33:20.802Z,11.36
2019-02-09T21:38:26.144Z,11.36
2019-02-09T21:43:31.575Z,11.35
2019-02-09T21:48:36.931Z,11.33
2019-02-09T21:53:42.271Z,11.31
2019-02-09T21:58:47.887Z,11.31
2019-02-09T22:03:53.271Z,11.31
2019-02-09T22:08:58.798Z,11.29
2019-02-09T22:14:04.261Z,11.25
2019-02-09T22:19:09.664Z,11.23
2019-02-09T22:24:15.207Z,11.17
2019-02-09T22:29:20.531Z,11.13
2019-02-09T22:34:25.864Z,11.13
2019-02-09T22:39:31.264Z,11.14
2019-02-09T22:44:36.778Z,11.17
2019-02-09T22:49:42.188Z,11.21
2019-02-09T22:54:47.577Z,11.22
2019-02-09T22:59:52.895Z,11.23
2019-02-09T23:05:39.692Z,11.23
2019-02-09T23:10:44.988Z,11.25
2019-02-09T23:15:50.532Z,11.33
2019-02-09T23:20:55.897Z,11.50
2019-02-09T23:26:01.387Z,11.73
2019-02-09T23:31:07.152Z,11.88
2019-02-09T23:36:16.305Z,12.02
2019-02-09T23:41:19.630Z,12.14
2019-02-09T23:46:25.023Z,12.31
2019-02-09T23:51:30.752Z,12.47
2019-02-09T23:56:36.103Z,12.42
